Time;durP1;ratioP1;P1;durP2;ratioP2;P2;SDS_P1;SDS_P2;PMS_P1;PMS_P2;Temp;Humidity;BMP_temperature;BMP_pressure;BME280_temperature;BME280_humidity;BME280_pressure;Samples;Min_cycle;Max_cycle;Signal;HPM_P1;HPM_P2
2021/12/08 00:20:18;;;;;;;61.50;26.60;;;;;;;-2.83;85.44;98286.96;422645;1305;99952;-41
2021/12/08 00:30:26;;;;;;;47.80;23.90;;;;;;;-2.82;85.44;98293.67;422214;1305;112558;-40
2021/12/08 00:40:35;;;;;;;52.40;23.50;;;;;;;-2.86;85.49;98293.73;422650;1305;108867;-40
2021/12/08 00:50:43;;;;;;;58.90;25.60;;;;;;;-2.94;85.59;98286.96;422437;1305;99303;-40
2021/12/08 01:00:52;;;;;;;50.30;23.10;;;;;;;-3.01;85.56;98273.95;422593;1305;109028;-40
2021/12/08 01:11:02;;;;;;;55.40;24.70;;;;;;;-3.01;85.71;98272.76;422500;1305;98811;-40
2021/12/08 01:21:11;;;;;;;51.80;23.80;;;;;;;-2.96;85.48;98266.97;415297;1306;10394008;-39
2021/12/08 01:41:25;;;;;;;71.70;29.90;;;;;;;-3.05;85.91;98266.19;422426;1309;98904;-41
2021/12/08 01:51:32;;;;;;;77.20;31.20;;;;;;;-3.03;85.61;98250.45;422589;1308;110650;-41
2021/12/08 02:01:42;;;;;;;66.20;27.20;;;;;;;-2.95;85.55;98242.42;422472;1308;108135;-40
2021/12/08 02:11:53;;;;;;;65.10;28.70;;;;;;;-2.90;85.72;98233.14;422692;1308;99190;-40
2021/12/08 02:22:01;;;;;;;80.30;33.50;;;;;;;-2.92;85.87;98224.04;422451;1308;108908;-40
2021/12/08 02:32:23;;;;;;;96.20;35.40;;;;;;;-3.08;85.90;98213.91;422296;1308;99360;-40
2021/12/08 02:52:58;;;;;;;78.20;32.10;;;;;;;-3.05;85.87;98194.15;422677;1306;108945;-41
2021/12/08 03:03:06;;;;;;;67.30;27.20;;;;;;;-3.13;85.71;98184.16;422716;1304;98912;-40
2021/12/08 03:13:14;;;;;;;72.80;29.70;;;;;;;-3.20;85.90;98163.38;422900;1307;112796;-40
2021/12/08 03:23:29;;;;;;;85.80;33.80;;;;;;;-3.38;85.89;98164.66;422908;1306;108874;-41
2021/12/08 03:33:37;;;;;;;67.90;29.40;;;;;;;-3.45;86.08;98156.05;422531;1304;98425;-39
2021/12/08 03:43:45;;;;;;;61.20;26.70;;;;;;;-3.41;85.91;98152.70;422732;1304;108874;-39
2021/12/08 03:53:52;;;;;;;85.20;34.30;;;;;;;-3.48;86.10;98162.25;422660;1305;99315;-40
2021/12/08 04:04:03;;;;;;;71.30;30.80;;;;;;;-3.55;86.27;98165.67;422610;1304;112821;-40
2021/12/08 04:14:13;;;;;;;65.70;27.40;;;;;;;-3.67;86.11;98140.20;422808;1304;109088;-40
2021/12/08 04:24:20;;;;;;;81.00;31.60;;;;;;;-3.78;85.90;98137.98;422468;1306;98833;-40
2021/12/08 04:34:32;;;;;;;85.30;35.00;;;;;;;-3.69;86.11;98126.95;422780;1306;112516;-40
2021/12/08 04:44:46;;;;;;;86.60;29.50;;;;;;;-3.84;85.87;98128.95;422469;1307;108893;-40
2021/12/08 05:15:27;;;;;;;77.70;27.80;;;;;;;-4.33;85.86;98137.36;422397;1304;99242;-40
2021/12/08 05:25:38;;;;;;;89.90;31.40;;;;;;;-4.52;86.12;98130.08;422747;1304;112485;-40
2021/12/08 05:35:50;;;;;;;79.00;31.00;;;;;;;-4.56;86.13;98119.81;422395;1307;108939;-41
2021/12/08 05:45:59;;;;;;;41.70;18.60;;;;;;;-4.39;86.10;98115.38;422860;1304;98461;-39
2021/12/08 05:56:08;;;;;;;83.90;30.60;;;;;;;-4.62;86.06;98113.98;422667;1306;108934;-40
2021/12/08 06:16:22;;;;;;;53.00;21.20;;;;;;;-4.97;85.85;98105.09;422869;1306;112540;-40
2021/12/08 06:26:30;;;;;;;50.90;21.00;;;;;;;-5.03;86.06;98108.75;422621;1306;107269;-41
2021/12/08 06:36:40;;;;;;;104.70;35.20;;;;;;;-4.92;86.18;98102.27;422812;1306;98870;-41
2021/12/08 06:46:48;;;;;;;88.40;32.00;;;;;;;-4.97;86.28;98102.16;422682;1306;108231;-39
2021/12/08 06:56:59;;;;;;;75.50;31.10;;;;;;;-4.91;86.37;98096.67;423324;1306;99377;-40
2021/12/08 07:07:04;;;;;;;51.00;22.70;;;;;;;-4.70;86.25;98096.05;422807;1306;113023;-39
2021/12/08 07:17:18;;;;;;;59.50;25.50;;;;;;;-4.73;85.91;98085.83;422790;1306;108982;-40
2021/12/08 07:27:30;;;;;;;112.20;33.60;;;;;;;-4.71;86.32;98086.08;423264;1306;98892;-40
2021/12/08 07:37:38;;;;;;;98.10;32.40;;;;;;;-4.65;86.24;98102.77;422503;1306;112433;-40
2021/12/08 07:47:46;;;;;;;64.20;26.30;;;;;;;-4.68;86.20;98101.82;423040;1306;107844;-40
2021/12/08 07:57:54;;;;;;;63.80;23.20;;;;;;;-4.61;86.18;98120.90;422772;1306;101459;-40
2021/12/08 08:08:04;;;;;;;73.10;29.10;;;;;;;-4.47;86.09;98109.44;423722;1306;112557;-41
2021/12/08 08:18:20;;;;;;;70.20;26.20;;;;;;;-4.50;86.17;98110.61;423086;1306;109201;-40
2021/12/08 08:28:28;;;;;;;69.20;27.10;;;;;;;-4.51;85.98;98101.77;422785;1306;98342;-40
2021/12/08 08:38:40;;;;;;;70.80;27.90;;;;;;;-4.54;85.92;98102.52;422603;1306;108908;-39
2021/12/08 08:48:52;;;;;;;74.90;27.10;;;;;;;-4.44;86.04;98108.79;422572;1306;99398;-40
2021/12/08 08:59:03;;;;;;;92.00;33.40;;;;;;;-4.33;86.06;98113.96;422565;1310;111603;-40
2021/12/08 09:09:15;;;;;;;58.00;24.40;;;;;;;-4.19;85.72;98104.69;422723;1306;107853;-40
2021/12/08 09:19:26;;;;;;;61.60;28.30;;;;;;;-4.08;85.42;98088.55;418470;1306;5388476;-40
2021/12/08 09:29:40;;;;;;;69.30;28.70;;;;;;;-4.25;85.40;98080.64;423181;1307;112807;-41
2021/12/08 09:39:50;;;;;;;68.50;29.90;;;;;;;-4.28;85.41;98086.08;422612;1306;106921;-40
2021/12/08 09:49:57;;;;;;;68.50;28.30;;;;;;;-4.06;85.26;98082.78;422724;1307;99285;-40
2021/12/08 10:00:06;;;;;;;78.40;31.60;;;;;;;-4.02;85.07;98082.02;422402;1306;112652;-40
2021/12/08 10:10:16;;;;;;;54.10;22.00;;;;;;;-4.10;84.72;98067.10;422539;1307;108802;-40
2021/12/08 10:20:27;;;;;;;40.00;20.10;;;;;;;-4.20;84.36;98063.84;422350;1307;99156;-40
2021/12/08 10:30:34;;;;;;;72.00;28.00;;;;;;;-4.12;84.56;98055.44;422569;1306;109499;-40
2021/12/08 10:40:56;;;;;;;61.10;26.80;;;;;;;-4.06;84.47;98040.58;422669;1307;99330;-41
2021/12/08 11:01:32;;;;;;;59.80;27.20;;;;;;;-4.00;84.10;98026.89;422409;1307;108907;-39
2021/12/08 11:21:50;;;;;;;76.50;31.30;;;;;;;-3.99;84.40;97992.48;422489;1310;111678;-39
2021/12/08 11:32:00;;;;;;;54.00;23.60;;;;;;;-4.03;83.95;97990.67;422771;1310;109447;-39
2021/12/08 11:42:12;;;;;;;46.10;21.80;;;;;;;-4.00;83.91;97977.13;422153;1307;99286;-41
2021/12/08 11:52:24;;;;;;;68.30;27.90;;;;;;;-4.00;84.07;97971.05;422657;1307;112199;-40
2021/12/08 12:02:28;;;;;;;77.90;31.50;;;;;;;-4.04;84.16;97978.52;422514;1307;108882;-40
2021/12/08 12:22:42;;;;;;;55.60;25.20;;;;;;;-4.08;84.12;97982.42;422204;1312;112354;-40
2021/12/08 12:32:49;;;;;;;75.30;33.50;;;;;;;-4.01;84.44;97967.21;422281;1311;108783;-40
2021/12/08 12:42:57;;;;;;;54.40;24.20;;;;;;;-3.98;84.41;97952.64;422368;1310;99312;-40
2021/12/08 12:53:04;;;;;;;51.40;25.30;;;;;;;-3.83;84.36;97949.07;422337;1308;109265;-40
2021/12/08 13:03:35;;;;;;;60.00;25.60;;;;;;;-3.70;84.49;97936.69;422236;1310;99282;-40
2021/12/08 13:13:52;;;;;;;60.40;23.10;;;;;;;-3.61;84.72;97932.99;422671;1308;112433;-41
2021/12/08 13:23:59;;;;;;;50.40;21.40;;;;;;;-3.65;84.64;97928.24;422547;1307;107622;-40
2021/12/08 13:34:08;;;;;;;42.10;22.90;;;;;;;-3.56;84.60;97935.09;422680;1307;98096;-40
2021/12/08 13:44:20;;;;;;;46.60;23.50;;;;;;;-3.49;84.68;97923.84;422229;1310;108891;-40
2021/12/08 13:54:24;;;;;;;74.40;32.20;;;;;;;-3.45;84.92;97925.56;422664;1307;99331;-40
2021/12/08 14:04:32;;;;;;;98.00;36.30;;;;;;;-3.52;84.90;97919.50;422365;1307;112467;-40
2021/12/08 14:14:39;;;;;;;46.10;23.00;;;;;;;-3.57;84.87;97930.05;422659;1307;108859;-41
2021/12/08 14:24:54;;;;;;;42.30;21.20;;;;;;;-3.55;85.02;97944.00;422408;1307;99283;-40
2021/12/08 14:35:09;;;;;;;50.50;22.90;;;;;;;-3.46;85.00;97936.77;422625;1307;112602;-42
2021/12/08 14:45:14;;;;;;;62.10;27.20;;;;;;;-3.47;85.12;97922.42;422914;1306;108785;-40
2021/12/08 14:55:22;;;;;;;69.60;26.70;;;;;;;-3.55;85.20;97926.56;422189;1309;99365;-40
2021/12/08 15:05:29;;;;;;;56.90;28.00;;;;;;;-3.50;85.23;97932.56;422788;1307;112361;-40
2021/12/08 15:15:37;;;;;;;57.20;26.80;;;;;;;-3.57;85.41;97927.97;422505;1307;107927;-40
2021/12/08 15:25:47;;;;;;;59.60;28.70;;;;;;;-3.55;85.42;97922.91;422765;1306;98075;-40
2021/12/08 15:36:05;;;;;;;59.20;25.30;;;;;;;-3.56;85.35;97917.52;422214;1307;108852;-40
2021/12/08 15:46:14;;;;;;;95.00;37.90;;;;;;;-3.63;85.40;97907.39;422527;1306;99974;-40
2021/12/08 15:56:22;;;;;;;59.00;29.60;;;;;;;-3.76;85.74;97913.26;422497;1306;112425;-42
2021/12/08 16:06:32;;;;;;;43.50;23.40;;;;;;;-3.81;85.48;97914.23;422721;1307;107882;-40
2021/12/08 16:16:40;;;;;;;45.00;22.50;;;;;;;-3.85;85.45;97904.12;422490;1307;99295;-39
2021/12/08 16:26:53;;;;;;;84.30;35.40;;;;;;;-3.94;85.61;97895.98;422587;1307;112479;-39
2021/12/08 16:37:01;;;;;;;55.60;29.30;;;;;;;-4.24;85.72;97893.98;422766;1306;108987;-38
2021/12/08 16:47:09;;;;;;;54.30;26.70;;;;;;;-4.37;85.78;97896.80;422765;1307;98148;-39
2021/12/08 16:57:17;;;;;;;55.80;27.20;;;;;;;-4.35;85.77;97894.29;422406;1306;112478;-39
2021/12/08 17:07:46;;;;;;;88.90;39.30;;;;;;;-4.32;86.02;97893.17;406830;1354;640645;-40
2021/12/08 17:17:53;;;;;;;74.10;33.10;;;;;;;-4.39;85.93;97897.20;413586;1319;5463348;-39
2021/12/08 17:28:01;;;;;;;46.10;24.50;;;;;;;-4.38;86.00;97897.25;420700;1312;109009;-40
2021/12/08 17:38:09;;;;;;;44.60;22.50;;;;;;;-4.32;85.89;97906.14;420124;1312;108838;-39
2021/12/08 17:48:17;;;;;;;50.90;25.60;;;;;;;-4.23;85.80;97905.45;420573;1312;95466;-40
2021/12/08 17:58:25;;;;;;;71.70;33.10;;;;;;;-4.43;85.91;97916.20;420310;1313;108511;-40
2021/12/08 18:18:45;;;;;;;40.50;21.30;;;;;;;-4.33;86.01;97909.82;420117;1313;108804;-40
2021/12/08 18:28:51;;;;;;;48.30;22.10;;;;;;;-4.44;86.13;97914.98;419612;1316;95259;-42
2021/12/08 18:39:00;;;;;;;77.70;31.40;;;;;;;-4.55;86.12;97919.80;420438;1318;108415;-39
2021/12/08 18:49:07;;;;;;;55.70;28.50;;;;;;;-4.53;86.28;97917.70;420258;1313;108928;-40
2021/12/08 19:09:22;;;;;;;;;;;;;;;-4.38;86.15;97883.98;420340;1313;109836;-39
2021/12/08 19:19:30;;;;;;;75.90;32.20;;;;;;;-4.49;86.35;97868.31;420344;1313;108943;-39
2021/12/08 19:29:38;;;;;;;58.30;27.50;;;;;;;-4.55;86.39;97862.79;420536;1316;108839;-40
2021/12/08 19:39:45;;;;;;;50.40;23.20;;;;;;;-4.53;86.35;97848.60;420814;1312;96890;-40
2021/12/08 19:49:52;;;;;;;47.50;22.60;;;;;;;-4.53;86.44;97853.55;420428;1313;108842;-43
2021/12/08 19:59:59;;;;;;;48.50;23.80;;;;;;;-4.54;86.60;97850.73;420502;1313;96224;-39
2021/12/08 20:10:03;;;;;;;59.50;27.80;;;;;;;-4.49;86.72;97846.45;420309;1313;109856;-40
2021/12/08 20:20:14;;;;;;;74.90;32.70;;;;;;;-4.53;86.77;97844.29;420617;1313;96533;-39
2021/12/08 20:30:23;;;;;;;43.30;23.40;;;;;;;-4.40;86.69;97835.43;420214;1313;96065;-42
2021/12/08 20:40:32;;;;;;;42.30;20.80;;;;;;;-4.34;86.80;97833.25;420190;1313;110413;-39
2021/12/08 20:50:39;;;;;;;104.20;39.80;;;;;;;-4.33;86.82;97832.41;420218;1319;107877;-40
2021/12/08 21:00:50;;;;;;;81.50;30.50;;;;;;;-4.39;87.06;97830.11;420452;1313;95396;-40
2021/12/08 21:10:58;;;;;;;54.90;25.50;;;;;;;-4.43;86.93;97820.20;420627;1313;109744;-39
2021/12/08 21:21:05;;;;;;;93.70;39.90;;;;;;;-4.42;86.84;97815.68;420076;1312;108455;-40
2021/12/08 21:41:18;;;;;;;97.30;38.30;;;;;;;-4.34;86.97;97801.61;420128;1313;108967;-39
2021/12/08 21:51:27;;;;;;;81.40;33.20;;;;;;;-4.44;87.22;97798.62;420771;1313;107870;-39
2021/12/08 22:01:31;;;;;;;66.20;30.70;;;;;;;-4.35;86.88;97798.92;420360;1318;96228;-40
2021/12/08 22:11:38;;;;;;;58.90;28.20;;;;;;;-4.26;86.99;97802.13;420605;1318;108905;-39
2021/12/08 22:21:46;;;;;;;56.70;25.60;;;;;;;-4.17;86.99;97792.48;420417;1313;96297;-40
2021/12/08 22:31:53;;;;;;;60.30;26.00;;;;;;;-4.25;87.35;97779.84;420667;1317;111907;-40
2021/12/08 22:42:00;;;;;;;50.00;25.40;;;;;;;-4.27;87.40;97785.76;420343;1313;109071;-40
2021/12/08 22:52:06;;;;;;;84.10;32.30;;;;;;;-4.18;87.08;97786.21;420243;1317;108813;-40
2021/12/08 23:02:12;;;;;;;56.80;24.30;;;;;;;-4.03;87.20;97783.41;420120;1318;96571;-40
2021/12/08 23:12:19;;;;;;;63.70;28.60;;;;;;;-4.07;87.16;97774.48;420668;1313;109638;-40
2021/12/08 23:22:26;;;;;;;65.50;27.50;;;;;;;-4.17;87.08;97774.89;420155;1319;108911;-40
2021/12/08 23:32:34;;;;;;;64.90;26.80;;;;;;;-4.21;86.92;97769.60;420672;1314;108693;-40
2021/12/08 23:42:42;;;;;;;60.70;27.80;;;;;;;-4.10;87.03;97769.83;420287;1313;96236;-40
